Gas Renovatio — 9HA2845 — position and weather

sailwx.info

Track history (hours):
 
Tides and Currents Weather Stations Pressure Air Temp Water Temp Dewpoint Dewpoint Depression Visibility Wind Speed Wind Dir Waves Ship Positions

Gas Renovatio

Last reported at 2014-Sep-23 05:32 UTC. Time now 2014-Sep-23 06:20 UTC.
Position N 37°56' W 008°51'.

Length 99 m; draft 4.9 m.

Type: Tanker. MMSI: 256325000.

Date/timePositionNaut miles runAvg speedWind from/ knotsBaromVisibWave heightAir tempDewpointWater temp
2014-Sep-23 05:32N 37°56' W 008°51'0 0.0
2014-Sep-23 04:32N 37°56' W 008°51'0 0.0
2014-Sep-23 03:32N 37°56' W 008°51'0 0.0
2014-Sep-23 02:32N 37°56' W 008°51'0 0.0
2014-Sep-23 01:32N 37°56' W 008°51'0 0.0
2014-Sep-23 00:32N 37°56' W 008°51'0 0.0
2014-Sep-22 23:32N 37°56' W 008°51'0 0.0
2014-Sep-22 22:32N 37°56' W 008°51'0 0.0
2014-Sep-22 21:32N 37°56' W 008°51'0 0.0
2014-Sep-22 20:32N 37°56' W 008°51'0 0.0
2014-Sep-22 19:32N 37°56' W 008°51'0 0.0
2014-Sep-22 18:32N 37°56' W 008°51'0 0.0
2014-Sep-22 17:32N 37°56' W 008°51'0 0.0
2014-Sep-22 16:32N 37°56' W 008°51'0 0.0
2014-Sep-22 15:32N 37°56' W 008°51'0 0.0
2014-Sep-22 14:32N 37°56' W 008°51'0 0.0
2014-Sep-22 13:32N 37°56' W 008°51'0 0.0
2014-Sep-22 12:32N 37°56' W 008°51'0 0.0
2014-Sep-22 11:32N 37°56' W 008°51'0 0.0
2014-Sep-22 10:32N 37°56' W 008°51'0 0.0
2014-Sep-22 09:32N 37°56' W 008°51'0 0.0
2014-Sep-22 08:32N 37°56' W 008°51'0 0.0
2014-Sep-22 07:32N 37°56' W 008°51'0 0.0
2014-Sep-22 06:32N 37°56' W 008°51'0 0.0
2014-Sep-22 05:32N 37°56' W 008°51'0 0.0
2014-Sep-22 04:32N 37°56' W 008°51'0 0.0
2014-Sep-22 03:32N 37°56' W 008°51'0 0.0
2014-Sep-22 02:32N 37°56' W 008°51'0 0.0
2014-Sep-22 01:32N 37°56' W 008°51'0 0.0
2014-Sep-22 00:32N 37°56' W 008°51'0 0.0
2014-Sep-21 23:32N 37°56' W 008°51'0 0.0
2014-Sep-21 22:32N 37°56' W 008°51'0 0.0
2014-Sep-21 21:32N 37°56' W 008°51'0 0.0
2014-Sep-21 20:32N 37°56' W 008°51'0 0.0
2014-Sep-21 19:32N 37°56' W 008°51'0 0.0
2014-Sep-21 18:32N 37°56' W 008°51'2 1.5
2014-Sep-21 17:32N 37°57' W 008°53'0 0.0
2014-Sep-21 16:32N 37°57' W 008°53'0 0.0
2014-Sep-21 15:32N 37°57' W 008°53'0 0.0
2014-Sep-21 14:32N 37°57' W 008°53'0 0.0
2014-Sep-21 13:32N 37°57' W 008°53'0 0.0
2014-Sep-21 12:32N 37°57' W 008°53'0 0.0
2014-Sep-21 11:32N 37°57' W 008°53'0 0.0
2014-Sep-21 10:32N 37°57' W 008°53'0 0.0
2014-Sep-21 09:32N 37°57' W 008°53'0 0.0
2014-Sep-21 08:32N 37°57' W 008°53'0 0.0
2014-Sep-21 07:32N 37°57' W 008°53'0 0.0
2014-Sep-21 06:32N 37°57' W 008°53'0 0.0
2014-Sep-21 05:32N 37°57' W 008°53'0 0.0
2014-Sep-21 04:32N 37°57' W 008°53'0 0.0
2014-Sep-21 03:32N 37°57' W 008°53'0 0.0
2014-Sep-21 02:32N 37°57' W 008°53'0 0.0
2014-Sep-21 01:32N 37°57' W 008°53'0 0.0
2014-Sep-21 00:32N 37°57' W 008°53'0 0.0
2014-Sep-20 23:32N 37°57' W 008°53'0 0.0
2014-Sep-20 22:32N 37°57' W 008°53'0 0.0
2014-Sep-20 21:32N 37°57' W 008°53'0 0.0
2014-Sep-20 20:32N 37°57' W 008°53'0 0.0
2014-Sep-20 19:32N 37°57' W 008°53'0 0.0
2014-Sep-20 18:32N 37°57' W 008°53'0 0.0
2014-Sep-20 17:32N 37°57' W 008°53'1 1.0
2014-Sep-20 16:33N 37°56' W 008°53'5 4.6
2014-Sep-20 15:33N 37°59' W 008°58'10 9.6
2014-Sep-20 14:33N 38°03' W 009°09'1010.0
2014-Sep-20 13:33N 38°06' W 009°20'10 9.7
2014-Sep-20 12:32N 38°10' W 009°32'  
Track history (hours):
 
Tides and Currents Weather Stations Pressure Air Temp Water Temp Dewpoint Dewpoint Depression Visibility Wind Speed Wind Dir Waves Ship Positions

Gas Renovatio

Last reported at 2014-Sep-23 05:32 UTC. Time now 2014-Sep-23 06:20 UTC.
Position N 37°56' W 008°51'.

Length 99 m; draft 4.9 m.

Type: Tanker. MMSI: 256325000.

Date/timePositionNaut miles runAvg speedWind from/ knotsBaromVisibWave heightAir tempDewpointWater temp
2014-Sep-23 05:32N 37°56' W 008°51'0 0.0
2014-Sep-23 04:32N 37°56' W 008°51'0 0.0
2014-Sep-23 03:32N 37°56' W 008°51'0 0.0
2014-Sep-23 02:32N 37°56' W 008°51'0 0.0
2014-Sep-23 01:32N 37°56' W 008°51'0 0.0
2014-Sep-23 00:32N 37°56' W 008°51'0 0.0
2014-Sep-22 23:32N 37°56' W 008°51'0 0.0
2014-Sep-22 22:32N 37°56' W 008°51'0 0.0
2014-Sep-22 21:32N 37°56' W 008°51'0 0.0
2014-Sep-22 20:32N 37°56' W 008°51'0 0.0
2014-Sep-22 19:32N 37°56' W 008°51'0 0.0
2014-Sep-22 18:32N 37°56' W 008°51'0 0.0
2014-Sep-22 17:32N 37°56' W 008°51'0 0.0
2014-Sep-22 16:32N 37°56' W 008°51'0 0.0
2014-Sep-22 15:32N 37°56' W 008°51'0 0.0
2014-Sep-22 14:32N 37°56' W 008°51'0 0.0
2014-Sep-22 13:32N 37°56' W 008°51'0 0.0
2014-Sep-22 12:32N 37°56' W 008°51'0 0.0
2014-Sep-22 11:32N 37°56' W 008°51'0 0.0
2014-Sep-22 10:32N 37°56' W 008°51'0 0.0
2014-Sep-22 09:32N 37°56' W 008°51'0 0.0
2014-Sep-22 08:32N 37°56' W 008°51'0 0.0
2014-Sep-22 07:32N 37°56' W 008°51'0 0.0
2014-Sep-22 06:32N 37°56' W 008°51'0 0.0
2014-Sep-22 05:32N 37°56' W 008°51'0 0.0
2014-Sep-22 04:32N 37°56' W 008°51'0 0.0
2014-Sep-22 03:32N 37°56' W 008°51'0 0.0
2014-Sep-22 02:32N 37°56' W 008°51'0 0.0
2014-Sep-22 01:32N 37°56' W 008°51'0 0.0
2014-Sep-22 00:32N 37°56' W 008°51'0 0.0
2014-Sep-21 23:32N 37°56' W 008°51'0 0.0
2014-Sep-21 22:32N 37°56' W 008°51'0 0.0
2014-Sep-21 21:32N 37°56' W 008°51'0 0.0
2014-Sep-21 20:32N 37°56' W 008°51'0 0.0
2014-Sep-21 19:32N 37°56' W 008°51'0 0.0
2014-Sep-21 18:32N 37°56' W 008°51'2 1.5
2014-Sep-21 17:32N 37°57' W 008°53'0 0.0
2014-Sep-21 16:32N 37°57' W 008°53'0 0.0
2014-Sep-21 15:32N 37°57' W 008°53'0 0.0
2014-Sep-21 14:32N 37°57' W 008°53'0 0.0
2014-Sep-21 13:32N 37°57' W 008°53'0 0.0
2014-Sep-21 12:32N 37°57' W 008°53'0 0.0
2014-Sep-21 11:32N 37°57' W 008°53'0 0.0
2014-Sep-21 10:32N 37°57' W 008°53'0 0.0
2014-Sep-21 09:32N 37°57' W 008°53'0 0.0
2014-Sep-21 08:32N 37°57' W 008°53'0 0.0
2014-Sep-21 07:32N 37°57' W 008°53'0 0.0
2014-Sep-21 06:32N 37°57' W 008°53'0 0.0
2014-Sep-21 05:32N 37°57' W 008°53'0 0.0
2014-Sep-21 04:32N 37°57' W 008°53'0 0.0
2014-Sep-21 03:32N 37°57' W 008°53'0 0.0
2014-Sep-21 02:32N 37°57' W 008°53'0 0.0
2014-Sep-21 01:32N 37°57' W 008°53'0 0.0
2014-Sep-21 00:32N 37°57' W 008°53'0 0.0
2014-Sep-20 23:32N 37°57' W 008°53'0 0.0
2014-Sep-20 22:32N 37°57' W 008°53'0 0.0
2014-Sep-20 21:32N 37°57' W 008°53'0 0.0
2014-Sep-20 20:32N 37°57' W 008°53'0 0.0
2014-Sep-20 19:32N 37°57' W 008°53'0 0.0
2014-Sep-20 18:32N 37°57' W 008°53'0 0.0
2014-Sep-20 17:32N 37°57' W 008°53'1 1.0
2014-Sep-20 16:33N 37°56' W 008°53'5 4.6
2014-Sep-20 15:33N 37°59' W 008°58'10 9.6
2014-Sep-20 14:33N 38°03' W 009°09'1010.0
2014-Sep-20 13:33N 38°06' W 009°20'10 9.7
2014-Sep-20 12:32N 38°10' W 009°32'  

Dump ship's entire track history